sensor_id;sensor_type;location;lat;lon;timestamp;P1;durP1;ratioP1;P2;durP2;ratioP2
61356;SDS011;47227;46.752;23.576;2022-12-24T00:00:00;220.80;;;52.40;;
61356;SDS011;47227;46.752;23.576;2022-12-24T00:02:27;312.20;;;53.90;;
61356;SDS011;47227;46.752;23.576;2022-12-24T00:04:54;173.60;;;49.70;;
61356;SDS011;47227;46.752;23.576;2022-12-24T00:07:27;144.80;;;50.90;;
61356;SDS011;47227;46.752;23.576;2022-12-24T00:09:54;161.50;;;48.10;;
61356;SDS011;47227;46.752;23.576;2022-12-24T00:12:20;142.70;;;48.10;;
61356;SDS011;47227;46.752;23.576;2022-12-24T00:14:47;155.50;;;49.20;;
61356;SDS011;47227;46.752;23.576;2022-12-24T00:17:14;175.60;;;49.30;;
61356;SDS011;47227;46.752;23.576;2022-12-24T00:19:41;133.90;;;46.30;;
61356;SDS011;47227;46.752;23.576;2022-12-24T00:22:08;143.10;;;48.70;;
61356;SDS011;47227;46.752;23.576;2022-12-24T00:24:35;134.70;;;44.60;;
61356;SDS011;47227;46.752;23.576;2022-12-24T00:27:02;119.90;;;43.30;;
61356;SDS011;47227;46.752;23.576;2022-12-24T00:29:28;132.30;;;44.10;;
61356;SDS011;47227;46.752;23.576;2022-12-24T00:31:55;112.00;;;39.40;;
61356;SDS011;47227;46.752;23.576;2022-12-24T00:34:22;112.50;;;41.90;;
61356;SDS011;47227;46.752;23.576;2022-12-24T00:36:49;141.00;;;40.30;;
61356;SDS011;47227;46.752;23.576;2022-12-24T00:39:19;102.30;;;40.20;;
61356;SDS011;47227;46.752;23.576;2022-12-24T00:41:45;139.20;;;42.50;;
61356;SDS011;47227;46.752;23.576;2022-12-24T00:44:12;124.00;;;41.80;;
61356;SDS011;47227;46.752;23.576;2022-12-24T00:46:39;124.50;;;43.30;;
61356;SDS011;47227;46.752;23.576;2022-12-24T00:49:07;150.70;;;42.80;;
61356;SDS011;47227;46.752;23.576;2022-12-24T00:51:36;127.70;;;42.90;;
61356;SDS011;47227;46.752;23.576;2022-12-24T00:54:03;140.60;;;42.50;;
61356;SDS011;47227;46.752;23.576;2022-12-24T00:56:30;138.90;;;41.90;;
61356;SDS011;47227;46.752;23.576;2022-12-24T00:58:57;149.70;;;44.00;;
61356;SDS011;47227;46.752;23.576;2022-12-24T01:01:23;121.70;;;42.60;;
61356;SDS011;47227;46.752;23.576;2022-12-24T01:03:51;176.20;;;47.20;;
61356;SDS011;47227;46.752;23.576;2022-12-24T01:06:38;134.00;;;44.60;;
61356;SDS011;47227;46.752;23.576;2022-12-24T01:09:05;177.50;;;45.70;;
61356;SDS011;47227;46.752;23.576;2022-12-24T01:11:32;189.00;;;46.00;;
61356;SDS011;47227;46.752;23.576;2022-12-24T01:13:59;142.80;;;47.40;;
61356;SDS011;47227;46.752;23.576;2022-12-24T01:16:25;229.10;;;50.10;;
61356;SDS011;47227;46.752;23.576;2022-12-24T01:18:52;192.30;;;48.50;;
61356;SDS011;47227;46.752;23.576;2022-12-24T01:21:22;163.90;;;47.90;;
61356;SDS011;47227;46.752;23.576;2022-12-24T01:23:49;163.70;;;44.40;;
61356;SDS011;47227;46.752;23.576;2022-12-24T01:26:15;160.70;;;45.40;;
61356;SDS011;47227;46.752;23.576;2022-12-24T01:28:42;120.10;;;43.20;;
61356;SDS011;47227;46.752;23.576;2022-12-24T01:31:11;143.60;;;43.90;;
61356;SDS011;47227;46.752;23.576;2022-12-24T01:33:39;118.10;;;44.80;;
61356;SDS011;47227;46.752;23.576;2022-12-24T01:36:07;162.20;;;45.10;;
61356;SDS011;47227;46.752;23.576;2022-12-24T01:38:35;104.40;;;42.20;;
61356;SDS011;47227;46.752;23.576;2022-12-24T01:41:02;110.50;;;45.20;;
61356;SDS011;47227;46.752;23.576;2022-12-24T01:43:42;97.80;;;43.10;;
61356;SDS011;47227;46.752;23.576;2022-12-24T01:46:11;99.10;;;42.70;;
61356;SDS011;47227;46.752;23.576;2022-12-24T01:48:44;98.70;;;43.20;;
61356;SDS011;47227;46.752;23.576;2022-12-24T01:54:15;100.20;;;45.10;;
61356;SDS011;47227;46.752;23.576;2022-12-24T01:56:46;94.10;;;45.00;;
61356;SDS011;47227;46.752;23.576;2022-12-24T01:59:19;95.80;;;43.80;;
61356;SDS011;47227;46.752;23.576;2022-12-24T02:01:47;93.50;;;44.40;;
61356;SDS011;47227;46.752;23.576;2022-12-24T02:04:23;86.80;;;42.90;;
61356;SDS011;47227;46.752;23.576;2022-12-24T02:06:57;86.00;;;41.90;;
61356;SDS011;47227;46.752;23.576;2022-12-24T02:09:24;88.30;;;43.90;;
61356;SDS011;47227;46.752;23.576;2022-12-24T02:11:51;88.80;;;42.80;;
61356;SDS011;47227;46.752;23.576;2022-12-24T02:14:18;96.40;;;45.90;;
61356;SDS011;47227;46.752;23.576;2022-12-24T02:16:57;107.80;;;46.60;;
61356;SDS011;47227;46.752;23.576;2022-12-24T02:19:39;107.30;;;49.70;;
61356;SDS011;47227;46.752;23.576;2022-12-24T02:25:26;103.10;;;49.40;;
61356;SDS011;47227;46.752;23.576;2022-12-24T02:28:14;116.30;;;52.10;;
61356;SDS011;47227;46.752;23.576;2022-12-24T02:30:54;208.60;;;51.30;;
61356;SDS011;47227;46.752;23.576;2022-12-24T02:33:34;148.90;;;52.00;;
61356;SDS011;47227;46.752;23.576;2022-12-24T02:36:11;191.40;;;54.60;;
61356;SDS011;47227;46.752;23.576;2022-12-24T02:38:46;495.00;;;59.60;;
61356;SDS011;47227;46.752;23.576;2022-12-24T02:41:22;328.10;;;60.20;;
61356;SDS011;47227;46.752;23.576;2022-12-24T02:43:52;340.50;;;59.10;;
61356;SDS011;47227;46.752;23.576;2022-12-24T02:46:24;207.00;;;52.90;;
61356;SDS011;47227;46.752;23.576;2022-12-24T02:48:53;194.60;;;49.90;;
61356;SDS011;47227;46.752;23.576;2022-12-24T02:51:22;120.90;;;48.00;;
61356;SDS011;47227;46.752;23.576;2022-12-24T02:53:49;161.00;;;48.80;;
61356;SDS011;47227;46.752;23.576;2022-12-24T02:56:21;120.50;;;47.70;;
61356;SDS011;47227;46.752;23.576;2022-12-24T03:01:56;107.20;;;47.40;;
61356;SDS011;47227;46.752;23.576;2022-12-24T03:07:28;95.40;;;45.50;;
61356;SDS011;47227;46.752;23.576;2022-12-24T03:10:15;92.40;;;44.20;;
61356;SDS011;47227;46.752;23.576;2022-12-24T03:12:48;93.90;;;44.70;;
61356;SDS011;47227;46.752;23.576;2022-12-24T03:15:21;87.00;;;43.20;;
61356;SDS011;47227;46.752;23.576;2022-12-24T03:17:51;94.70;;;44.60;;
61356;SDS011;47227;46.752;23.576;2022-12-24T03:23:02;96.00;;;46.90;;
61356;SDS011;47227;46.752;23.576;2022-12-24T03:25:29;99.60;;;47.90;;
61356;SDS011;47227;46.752;23.576;2022-12-24T03:27:59;107.10;;;48.80;;
61356;SDS011;47227;46.752;23.576;2022-12-24T03:30:28;106.40;;;50.90;;
61356;SDS011;47227;46.752;23.576;2022-12-24T03:32:55;110.80;;;49.80;;
61356;SDS011;47227;46.752;23.576;2022-12-24T03:35:22;115.00;;;52.20;;
61356;SDS011;47227;46.752;23.576;2022-12-24T03:37:49;131.90;;;57.00;;
61356;SDS011;47227;46.752;23.576;2022-12-24T03:40:15;115.60;;;53.60;;
61356;SDS011;47227;46.752;23.576;2022-12-24T03:42:42;119.50;;;53.60;;
61356;SDS011;47227;46.752;23.576;2022-12-24T03:45:08;123.20;;;54.50;;
61356;SDS011;47227;46.752;23.576;2022-12-24T03:47:35;147.00;;;55.00;;
61356;SDS011;47227;46.752;23.576;2022-12-24T03:50:02;139.50;;;56.20;;
61356;SDS011;47227;46.752;23.576;2022-12-24T03:52:30;124.10;;;56.10;;
61356;SDS011;47227;46.752;23.576;2022-12-24T03:54:57;113.20;;;54.20;;
61356;SDS011;47227;46.752;23.576;2022-12-24T03:57:23;120.10;;;57.20;;
61356;SDS011;47227;46.752;23.576;2022-12-24T03:59:50;119.00;;;56.10;;
61356;SDS011;47227;46.752;23.576;2022-12-24T04:02:17;133.40;;;58.20;;
61356;SDS011;47227;46.752;23.576;2022-12-24T04:04:44;119.50;;;58.50;;
61356;SDS011;47227;46.752;23.576;2022-12-24T04:07:10;126.80;;;56.50;;
61356;SDS011;47227;46.752;23.576;2022-12-24T04:09:37;109.40;;;52.60;;
61356;SDS011;47227;46.752;23.576;2022-12-24T04:12:04;112.20;;;52.00;;
61356;SDS011;47227;46.752;23.576;2022-12-24T04:14:30;96.30;;;49.90;;
61356;SDS011;47227;46.752;23.576;2022-12-24T04:16:57;101.70;;;49.60;;
61356;SDS011;47227;46.752;23.576;2022-12-24T04:19:24;100.10;;;50.00;;
61356;SDS011;47227;46.752;23.576;2022-12-24T04:21:50;89.80;;;47.60;;
61356;SDS011;47227;46.752;23.576;2022-12-24T04:24:17;94.30;;;48.80;;
61356;SDS011;47227;46.752;23.576;2022-12-24T04:26:43;91.70;;;46.90;;
61356;SDS011;47227;46.752;23.576;2022-12-24T04:29:09;93.50;;;48.40;;
61356;SDS011;47227;46.752;23.576;2022-12-24T04:31:36;87.00;;;45.40;;
61356;SDS011;47227;46.752;23.576;2022-12-24T04:34:03;92.10;;;47.20;;
61356;SDS011;47227;46.752;23.576;2022-12-24T04:36:29;83.40;;;44.60;;
61356;SDS011;47227;46.752;23.576;2022-12-24T04:38:56;88.00;;;45.30;;
61356;SDS011;47227;46.752;23.576;2022-12-24T04:41:23;90.20;;;45.90;;
61356;SDS011;47227;46.752;23.576;2022-12-24T04:43:51;83.90;;;45.80;;
61356;SDS011;47227;46.752;23.576;2022-12-24T04:46:21;95.10;;;48.00;;
61356;SDS011;47227;46.752;23.576;2022-12-24T04:48:50;89.20;;;46.30;;
61356;SDS011;47227;46.752;23.576;2022-12-24T04:51:18;93.20;;;49.40;;
61356;SDS011;47227;46.752;23.576;2022-12-24T04:53:45;96.10;;;49.40;;
61356;SDS011;47227;46.752;23.576;2022-12-24T04:56:13;94.40;;;48.60;;
61356;SDS011;47227;46.752;23.576;2022-12-24T04:58:43;87.80;;;47.90;;
61356;SDS011;47227;46.752;23.576;2022-12-24T05:01:11;97.90;;;51.30;;
61356;SDS011;47227;46.752;23.576;2022-12-24T05:03:40;88.20;;;48.30;;
61356;SDS011;47227;46.752;23.576;2022-12-24T05:06:07;84.50;;;47.30;;
61356;SDS011;47227;46.752;23.576;2022-12-24T05:08:37;88.50;;;49.30;;
61356;SDS011;47227;46.752;23.576;2022-12-24T05:11:04;87.40;;;48.40;;
61356;SDS011;47227;46.752;23.576;2022-12-24T05:13:32;90.30;;;50.10;;
61356;SDS011;47227;46.752;23.576;2022-12-24T05:16:10;87.20;;;50.20;;
61356;SDS011;47227;46.752;23.576;2022-12-24T05:18:37;87.40;;;50.10;;
61356;SDS011;47227;46.752;23.576;2022-12-24T05:21:08;88.50;;;50.00;;
61356;SDS011;47227;46.752;23.576;2022-12-24T05:23:36;83.40;;;46.30;;
61356;SDS011;47227;46.752;23.576;2022-12-24T05:29:02;73.00;;;44.00;;
61356;SDS011;47227;46.752;23.576;2022-12-24T05:31:31;72.90;;;42.60;;
61356;SDS011;47227;46.752;23.576;2022-12-24T05:33:59;63.30;;;39.00;;
61356;SDS011;47227;46.752;23.576;2022-12-24T05:36:26;63.90;;;39.30;;
61356;SDS011;47227;46.752;23.576;2022-12-24T05:38:52;60.90;;;38.00;;
61356;SDS011;47227;46.752;23.576;2022-12-24T05:41:19;60.90;;;38.40;;
61356;SDS011;47227;46.752;23.576;2022-12-24T05:43:47;65.00;;;38.80;;
61356;SDS011;47227;46.752;23.576;2022-12-24T05:46:15;61.90;;;38.10;;
61356;SDS011;47227;46.752;23.576;2022-12-24T05:48:43;62.70;;;38.60;;
61356;SDS011;47227;46.752;23.576;2022-12-24T05:51:11;61.40;;;37.20;;
61356;SDS011;47227;46.752;23.576;2022-12-24T05:53:40;65.50;;;40.20;;
61356;SDS011;47227;46.752;23.576;2022-12-24T05:56:08;69.20;;;41.20;;
61356;SDS011;47227;46.752;23.576;2022-12-24T05:58:36;72.80;;;41.80;;
61356;SDS011;47227;46.752;23.576;2022-12-24T06:01:04;75.60;;;43.70;;
61356;SDS011;47227;46.752;23.576;2022-12-24T06:03:32;74.20;;;44.40;;
61356;SDS011;47227;46.752;23.576;2022-12-24T06:06:00;86.30;;;45.50;;
61356;SDS011;47227;46.752;23.576;2022-12-24T06:08:29;84.90;;;47.60;;
61356;SDS011;47227;46.752;23.576;2022-12-24T06:10:57;96.90;;;47.00;;
61356;SDS011;47227;46.752;23.576;2022-12-24T06:13:26;87.70;;;47.30;;
61356;SDS011;47227;46.752;23.576;2022-12-24T06:15:54;84.20;;;49.50;;
61356;SDS011;47227;46.752;23.576;2022-12-24T06:18:21;114.40;;;49.70;;
61356;SDS011;47227;46.752;23.576;2022-12-24T06:20:50;99.00;;;50.00;;
61356;SDS011;47227;46.752;23.576;2022-12-24T06:23:19;96.90;;;52.40;;
61356;SDS011;47227;46.752;23.576;2022-12-24T06:25:46;99.60;;;52.10;;
61356;SDS011;47227;46.752;23.576;2022-12-24T06:28:14;94.70;;;50.80;;
61356;SDS011;47227;46.752;23.576;2022-12-24T06:30:40;115.60;;;53.30;;
61356;SDS011;47227;46.752;23.576;2022-12-24T06:33:07;106.70;;;51.90;;
61356;SDS011;47227;46.752;23.576;2022-12-24T06:35:34;106.00;;;53.80;;
61356;SDS011;47227;46.752;23.576;2022-12-24T06:38:00;108.50;;;48.60;;
61356;SDS011;47227;46.752;23.576;2022-12-24T06:40:27;97.70;;;48.30;;
61356;SDS011;47227;46.752;23.576;2022-12-24T06:42:53;88.60;;;45.10;;
61356;SDS011;47227;46.752;23.576;2022-12-24T06:45:20;84.90;;;44.20;;
61356;SDS011;47227;46.752;23.576;2022-12-24T06:47:46;82.20;;;43.80;;
61356;SDS011;47227;46.752;23.576;2022-12-24T06:50:13;79.20;;;41.60;;
61356;SDS011;47227;46.752;23.576;2022-12-24T06:52:39;78.40;;;42.00;;
61356;SDS011;47227;46.752;23.576;2022-12-24T06:55:06;73.90;;;38.50;;
61356;SDS011;47227;46.752;23.576;2022-12-24T06:57:33;76.00;;;40.20;;
61356;SDS011;47227;46.752;23.576;2022-12-24T06:59:59;75.70;;;40.80;;
61356;SDS011;47227;46.752;23.576;2022-12-24T07:02:26;75.20;;;39.80;;
61356;SDS011;47227;46.752;23.576;2022-12-24T07:04:53;74.30;;;39.50;;
61356;SDS011;47227;46.752;23.576;2022-12-24T07:07:19;70.50;;;39.80;;
61356;SDS011;47227;46.752;23.576;2022-12-24T07:09:46;75.40;;;40.10;;
61356;SDS011;47227;46.752;23.576;2022-12-24T07:12:13;74.80;;;42.40;;
61356;SDS011;47227;46.752;23.576;2022-12-24T07:14:39;71.90;;;39.90;;
61356;SDS011;47227;46.752;23.576;2022-12-24T07:17:06;73.40;;;40.70;;
61356;SDS011;47227;46.752;23.576;2022-12-24T07:19:32;78.90;;;42.80;;
61356;SDS011;47227;46.752;23.576;2022-12-24T07:21:59;76.80;;;43.40;;
61356;SDS011;47227;46.752;23.576;2022-12-24T07:24:25;72.20;;;42.00;;
61356;SDS011;47227;46.752;23.576;2022-12-24T07:26:52;71.60;;;41.50;;
61356;SDS011;47227;46.752;23.576;2022-12-24T07:29:19;71.80;;;42.50;;
61356;SDS011;47227;46.752;23.576;2022-12-24T07:31:46;81.30;;;44.70;;
61356;SDS011;47227;46.752;23.576;2022-12-24T07:34:12;75.60;;;44.70;;
61356;SDS011;47227;46.752;23.576;2022-12-24T07:36:39;77.10;;;44.60;;
61356;SDS011;47227;46.752;23.576;2022-12-24T07:39:05;78.40;;;46.40;;
61356;SDS011;47227;46.752;23.576;2022-12-24T07:41:32;77.00;;;45.80;;
61356;SDS011;47227;46.752;23.576;2022-12-24T07:44:09;79.40;;;44.80;;
61356;SDS011;47227;46.752;23.576;2022-12-24T07:46:37;85.00;;;47.60;;
61356;SDS011;47227;46.752;23.576;2022-12-24T07:49:04;78.90;;;45.00;;
61356;SDS011;47227;46.752;23.576;2022-12-24T07:51:31;72.10;;;39.80;;
61356;SDS011;47227;46.752;23.576;2022-12-24T07:53:58;76.70;;;43.50;;
61356;SDS011;47227;46.752;23.576;2022-12-24T07:56:25;92.40;;;46.30;;
61356;SDS011;47227;46.752;23.576;2022-12-24T07:58:51;93.30;;;46.40;;
61356;SDS011;47227;46.752;23.576;2022-12-24T08:01:18;99.20;;;50.20;;
61356;SDS011;47227;46.752;23.576;2022-12-24T08:03:44;79.40;;;43.10;;
61356;SDS011;47227;46.752;23.576;2022-12-24T08:06:11;65.60;;;37.60;;
61356;SDS011;47227;46.752;23.576;2022-12-24T08:08:38;69.00;;;40.00;;
61356;SDS011;47227;46.752;23.576;2022-12-24T08:11:05;66.10;;;37.30;;
61356;SDS011;47227;46.752;23.576;2022-12-24T08:13:32;70.30;;;39.30;;
61356;SDS011;47227;46.752;23.576;2022-12-24T08:16:03;65.90;;;36.90;;
61356;SDS011;47227;46.752;23.576;2022-12-24T08:18:30;67.40;;;39.50;;
61356;SDS011;47227;46.752;23.576;2022-12-24T08:20:57;77.10;;;42.10;;
61356;SDS011;47227;46.752;23.576;2022-12-24T08:23:24;71.90;;;40.00;;
61356;SDS011;47227;46.752;23.576;2022-12-24T08:25:51;69.10;;;39.30;;
61356;SDS011;47227;46.752;23.576;2022-12-24T08:28:18;66.30;;;37.80;;
61356;SDS011;47227;46.752;23.576;2022-12-24T08:30:47;68.20;;;36.50;;
61356;SDS011;47227;46.752;23.576;2022-12-24T08:33:16;70.10;;;39.70;;
61356;SDS011;47227;46.752;23.576;2022-12-24T08:35:47;70.60;;;38.80;;
61356;SDS011;47227;46.752;23.576;2022-12-24T08:38:15;117.00;;;53.70;;
61356;SDS011;47227;46.752;23.576;2022-12-24T08:40:42;122.70;;;60.00;;
61356;SDS011;47227;46.752;23.576;2022-12-24T08:43:09;78.50;;;42.10;;
61356;SDS011;47227;46.752;23.576;2022-12-24T08:45:37;67.40;;;39.40;;
61356;SDS011;47227;46.752;23.576;2022-12-24T08:48:07;73.50;;;39.10;;
61356;SDS011;47227;46.752;23.576;2022-12-24T08:50:37;85.00;;;43.90;;
61356;SDS011;47227;46.752;23.576;2022-12-24T08:53:05;78.10;;;42.40;;
61356;SDS011;47227;46.752;23.576;2022-12-24T08:55:33;94.10;;;47.90;;
61356;SDS011;47227;46.752;23.576;2022-12-24T08:58:01;91.40;;;47.10;;
61356;SDS011;47227;46.752;23.576;2022-12-24T09:00:28;90.90;;;47.50;;
61356;SDS011;47227;46.752;23.576;2022-12-24T09:02:55;104.20;;;50.40;;
61356;SDS011;47227;46.752;23.576;2022-12-24T09:05:43;88.90;;;46.90;;
61356;SDS011;47227;46.752;23.576;2022-12-24T09:08:13;85.20;;;44.20;;
61356;SDS011;47227;46.752;23.576;2022-12-24T09:10:39;85.90;;;43.30;;
61356;SDS011;47227;46.752;23.576;2022-12-24T09:13:06;88.80;;;43.10;;
61356;SDS011;47227;46.752;23.576;2022-12-24T09:15:32;75.40;;;38.80;;
61356;SDS011;47227;46.752;23.576;2022-12-24T09:17:59;79.90;;;40.20;;
61356;SDS011;47227;46.752;23.576;2022-12-24T09:20:26;76.20;;;39.00;;
61356;SDS011;47227;46.752;23.576;2022-12-24T09:22:53;68.10;;;36.00;;
61356;SDS011;47227;46.752;23.576;2022-12-24T09:25:19;64.60;;;35.70;;
61356;SDS011;47227;46.752;23.576;2022-12-24T09:27:46;63.60;;;34.20;;
61356;SDS011;47227;46.752;23.576;2022-12-24T09:30:13;68.70;;;35.00;;
61356;SDS011;47227;46.752;23.576;2022-12-24T09:32:40;64.80;;;35.60;;
61356;SDS011;47227;46.752;23.576;2022-12-24T09:35:07;66.80;;;39.20;;
61356;SDS011;47227;46.752;23.576;2022-12-24T09:37:34;78.60;;;42.10;;
61356;SDS011;47227;46.752;23.576;2022-12-24T09:40:02;73.30;;;41.10;;
61356;SDS011;47227;46.752;23.576;2022-12-24T09:42:38;87.50;;;46.90;;
61356;SDS011;47227;46.752;23.576;2022-12-24T09:45:17;92.90;;;47.50;;
61356;SDS011;47227;46.752;23.576;2022-12-24T09:48:00;89.00;;;47.90;;
61356;SDS011;47227;46.752;23.576;2022-12-24T09:50:41;90.90;;;47.70;;
61356;SDS011;47227;46.752;23.576;2022-12-24T09:55:56;83.20;;;44.30;;
61356;SDS011;47227;46.752;23.576;2022-12-24T09:58:32;84.50;;;45.30;;
61356;SDS011;47227;46.752;23.576;2022-12-24T10:01:02;82.10;;;43.80;;
61356;SDS011;47227;46.752;23.576;2022-12-24T10:03:29;81.50;;;44.00;;
61356;SDS011;47227;46.752;23.576;2022-12-24T10:06:00;82.90;;;44.20;;
61356;SDS011;47227;46.752;23.576;2022-12-24T10:08:38;72.50;;;40.40;;
61356;SDS011;47227;46.752;23.576;2022-12-24T10:11:34;54.80;;;32.50;;
61356;SDS011;47227;46.752;23.576;2022-12-24T10:14:16;46.10;;;26.10;;
61356;SDS011;47227;46.752;23.576;2022-12-24T10:17:02;46.90;;;26.20;;
61356;SDS011;47227;46.752;23.576;2022-12-24T10:22:50;33.70;;;20.00;;
61356;SDS011;47227;46.752;23.576;2022-12-24T10:25:29;37.60;;;22.00;;
61356;SDS011;47227;46.752;23.576;2022-12-24T10:28:21;47.70;;;26.10;;
61356;SDS011;47227;46.752;23.576;2022-12-24T10:30:57;45.50;;;26.10;;
61356;SDS011;47227;46.752;23.576;2022-12-24T10:36:15;64.40;;;35.90;;
61356;SDS011;47227;46.752;23.576;2022-12-24T10:38:44;68.50;;;39.10;;
61356;SDS011;47227;46.752;23.576;2022-12-24T10:41:11;70.90;;;41.90;;
61356;SDS011;47227;46.752;23.576;2022-12-24T10:43:39;68.80;;;42.40;;
61356;SDS011;47227;46.752;23.576;2022-12-24T10:46:17;81.60;;;45.90;;
61356;SDS011;47227;46.752;23.576;2022-12-24T10:48:50;86.50;;;46.80;;
61356;SDS011;47227;46.752;23.576;2022-12-24T10:51:29;79.40;;;46.30;;
61356;SDS011;47227;46.752;23.576;2022-12-24T10:54:18;62.10;;;35.90;;
61356;SDS011;47227;46.752;23.576;2022-12-24T10:56:55;63.00;;;36.10;;
61356;SDS011;47227;46.752;23.576;2022-12-24T10:59:25;62.30;;;36.50;;
61356;SDS011;47227;46.752;23.576;2022-12-24T11:01:55;76.70;;;43.90;;
61356;SDS011;47227;46.752;23.576;2022-12-24T11:04:25;85.50;;;48.50;;
61356;SDS011;47227;46.752;23.576;2022-12-24T11:06:56;79.50;;;46.60;;
61356;SDS011;47227;46.752;23.576;2022-12-24T11:09:28;80.30;;;44.40;;
61356;SDS011;47227;46.752;23.576;2022-12-24T11:11:56;77.30;;;44.70;;
61356;SDS011;47227;46.752;23.576;2022-12-24T11:14:33;68.00;;;42.00;;
61356;SDS011;47227;46.752;23.576;2022-12-24T11:17:02;61.70;;;38.60;;
61356;SDS011;47227;46.752;23.576;2022-12-24T11:19:30;67.70;;;40.10;;
61356;SDS011;47227;46.752;23.576;2022-12-24T11:22:01;75.40;;;45.30;;
61356;SDS011;47227;46.752;23.576;2022-12-24T11:24:34;76.90;;;46.40;;
61356;SDS011;47227;46.752;23.576;2022-12-24T11:32:47;70.40;;;42.10;;
61356;SDS011;47227;46.752;23.576;2022-12-24T11:35:18;44.30;;;26.80;;
61356;SDS011;47227;46.752;23.576;2022-12-24T11:37:47;39.40;;;25.30;;
61356;SDS011;47227;46.752;23.576;2022-12-24T11:40:35;208.50;;;102.70;;
61356;SDS011;47227;46.752;23.576;2022-12-24T11:43:05;75.50;;;39.60;;
61356;SDS011;47227;46.752;23.576;2022-12-24T11:45:44;86.20;;;47.20;;
61356;SDS011;47227;46.752;23.576;2022-12-24T11:48:23;83.30;;;46.80;;
61356;SDS011;47227;46.752;23.576;2022-12-24T11:50:56;36.40;;;22.10;;
61356;SDS011;47227;46.752;23.576;2022-12-24T11:53:28;61.20;;;36.20;;
61356;SDS011;47227;46.752;23.576;2022-12-24T11:56:02;48.10;;;30.50;;
61356;SDS011;47227;46.752;23.576;2022-12-24T11:58:41;44.40;;;26.00;;
61356;SDS011;47227;46.752;23.576;2022-12-24T12:01:20;38.30;;;24.10;;
61356;SDS011;47227;46.752;23.576;2022-12-24T12:03:52;38.80;;;24.90;;
61356;SDS011;47227;46.752;23.576;2022-12-24T12:06:25;31.60;;;20.30;;
61356;SDS011;47227;46.752;23.576;2022-12-24T12:09:13;29.30;;;19.60;;
61356;SDS011;47227;46.752;23.576;2022-12-24T12:11:49;47.50;;;26.50;;
61356;SDS011;47227;46.752;23.576;2022-12-24T12:14:26;39.60;;;25.50;;
61356;SDS011;47227;46.752;23.576;2022-12-24T12:17:13;41.00;;;26.00;;
61356;SDS011;47227;46.752;23.576;2022-12-24T12:19:55;36.10;;;22.90;;
61356;SDS011;47227;46.752;23.576;2022-12-24T12:22:34;34.20;;;22.90;;
61356;SDS011;47227;46.752;23.576;2022-12-24T12:25:20;40.60;;;24.90;;
61356;SDS011;47227;46.752;23.576;2022-12-24T12:27:50;40.50;;;26.00;;
61356;SDS011;47227;46.752;23.576;2022-12-24T12:30:20;43.50;;;27.20;;
61356;SDS011;47227;46.752;23.576;2022-12-24T12:33:13;41.90;;;26.10;;
61356;SDS011;47227;46.752;23.576;2022-12-24T12:35:45;42.90;;;27.00;;
61356;SDS011;47227;46.752;23.576;2022-12-24T12:38:17;44.60;;;26.80;;
61356;SDS011;47227;46.752;23.576;2022-12-24T12:40:56;46.00;;;27.30;;
61356;SDS011;47227;46.752;23.576;2022-12-24T12:46:56;45.20;;;27.60;;
61356;SDS011;47227;46.752;23.576;2022-12-24T12:49:53;44.90;;;28.00;;
61356;SDS011;47227;46.752;23.576;2022-12-24T12:55:29;39.40;;;25.10;;
61356;SDS011;47227;46.752;23.576;2022-12-24T12:58:09;40.20;;;23.80;;
61356;SDS011;47227;46.752;23.576;2022-12-24T13:00:46;38.10;;;23.60;;
61356;SDS011;47227;46.752;23.576;2022-12-24T13:14:47;30.90;;;20.40;;
61356;SDS011;47227;46.752;23.576;2022-12-24T13:17:48;33.10;;;21.50;;
61356;SDS011;47227;46.752;23.576;2022-12-24T13:20:32;33.80;;;20.60;;
61356;SDS011;47227;46.752;23.576;2022-12-24T13:23:07;32.20;;;21.50;;
61356;SDS011;47227;46.752;23.576;2022-12-24T13:25:48;34.50;;;22.20;;
61356;SDS011;47227;46.752;23.576;2022-12-24T13:28:29;33.00;;;20.90;;
61356;SDS011;47227;46.752;23.576;2022-12-24T13:33:51;36.60;;;22.50;;
61356;SDS011;47227;46.752;23.576;2022-12-24T13:36:21;31.60;;;20.50;;
61356;SDS011;47227;46.752;23.576;2022-12-24T13:38:55;35.50;;;22.50;;
61356;SDS011;47227;46.752;23.576;2022-12-24T13:41:42;33.80;;;22.60;;
61356;SDS011;47227;46.752;23.576;2022-12-24T13:44:16;29.20;;;19.20;;
61356;SDS011;47227;46.752;23.576;2022-12-24T13:46:48;31.00;;;19.90;;
61356;SDS011;47227;46.752;23.576;2022-12-24T13:49:26;35.50;;;22.40;;
61356;SDS011;47227;46.752;23.576;2022-12-24T13:52:16;33.20;;;23.40;;
61356;SDS011;47227;46.752;23.576;2022-12-24T13:54:59;42.60;;;24.10;;
61356;SDS011;47227;46.752;23.576;2022-12-24T13:57:33;32.50;;;21.40;;
61356;SDS011;47227;46.752;23.576;2022-12-24T14:00:21;34.70;;;22.20;;
61356;SDS011;47227;46.752;23.576;2022-12-24T14:05:36;38.60;;;22.30;;
61356;SDS011;47227;46.752;23.576;2022-12-24T14:08:12;29.40;;;20.60;;
61356;SDS011;47227;46.752;23.576;2022-12-24T14:16:43;23.10;;;15.10;;
61356;SDS011;47227;46.752;23.576;2022-12-24T14:19:15;19.80;;;13.90;;
61356;SDS011;47227;46.752;23.576;2022-12-24T14:21:51;21.90;;;13.50;;
61356;SDS011;47227;46.752;23.576;2022-12-24T14:24:32;27.60;;;15.70;;
61356;SDS011;47227;46.752;23.576;2022-12-24T14:27:07;25.80;;;16.30;;
61356;SDS011;47227;46.752;23.576;2022-12-24T14:29:45;29.40;;;17.60;;
61356;SDS011;47227;46.752;23.576;2022-12-24T14:32:17;26.30;;;16.90;;
61356;SDS011;47227;46.752;23.576;2022-12-24T14:34:44;21.40;;;12.10;;
61356;SDS011;47227;46.752;23.576;2022-12-24T14:37:11;17.50;;;12.10;;
61356;SDS011;47227;46.752;23.576;2022-12-24T14:39:42;14.30;;;11.00;;
61356;SDS011;47227;46.752;23.576;2022-12-24T14:42:21;21.90;;;13.10;;
61356;SDS011;47227;46.752;23.576;2022-12-24T14:47:58;20.70;;;14.40;;
61356;SDS011;47227;46.752;23.576;2022-12-24T14:50:47;21.70;;;14.30;;
61356;SDS011;47227;46.752;23.576;2022-12-24T14:53:34;19.70;;;13.90;;
61356;SDS011;47227;46.752;23.576;2022-12-24T14:56:22;18.30;;;13.30;;
61356;SDS011;47227;46.752;23.576;2022-12-24T14:58:50;20.20;;;13.90;;
61356;SDS011;47227;46.752;23.576;2022-12-24T15:01:19;21.60;;;14.80;;
61356;SDS011;47227;46.752;23.576;2022-12-24T15:06:44;20.80;;;14.30;;
61356;SDS011;47227;46.752;23.576;2022-12-24T15:09:18;24.00;;;14.80;;
61356;SDS011;47227;46.752;23.576;2022-12-24T15:11:48;22.60;;;14.90;;
61356;SDS011;47227;46.752;23.576;2022-12-24T15:14:17;20.80;;;14.70;;
61356;SDS011;47227;46.752;23.576;2022-12-24T15:16:55;16.90;;;11.90;;
61356;SDS011;47227;46.752;23.576;2022-12-24T15:19:26;17.50;;;12.40;;
61356;SDS011;47227;46.752;23.576;2022-12-24T15:21:58;18.50;;;13.70;;
61356;SDS011;47227;46.752;23.576;2022-12-24T15:24:29;20.30;;;13.70;;
61356;SDS011;47227;46.752;23.576;2022-12-24T15:26:58;19.60;;;13.70;;
61356;SDS011;47227;46.752;23.576;2022-12-24T15:29:28;25.40;;;14.00;;
61356;SDS011;47227;46.752;23.576;2022-12-24T15:31:58;19.80;;;12.70;;
61356;SDS011;47227;46.752;23.576;2022-12-24T15:34:28;18.60;;;11.80;;